sensor_id;sensor_type;location;lat;lon;timestamp;P1;durP1;ratioP1;P2;durP2;ratioP2
31210;SDS011;17836;50.948;3.946;2022-11-15T00:00:48;20.75;;;18.45;;
31210;SDS011;17836;50.948;3.946;2022-11-15T00:03:14;24.50;;;18.17;;
31210;SDS011;17836;50.948;3.946;2022-11-15T00:05:40;23.52;;;17.77;;
31210;SDS011;17836;50.948;3.946;2022-11-15T00:08:05;25.67;;;18.52;;
31210;SDS011;17836;50.948;3.946;2022-11-15T00:10:30;23.50;;;18.33;;
31210;SDS011;17836;50.948;3.946;2022-11-15T00:12:55;24.25;;;17.60;;
31210;SDS011;17836;50.948;3.946;2022-11-15T00:15:21;24.27;;;18.07;;
31210;SDS011;17836;50.948;3.946;2022-11-15T00:17:48;25.07;;;18.00;;
31210;SDS011;17836;50.948;3.946;2022-11-15T00:20:13;26.45;;;18.73;;
31210;SDS011;17836;50.948;3.946;2022-11-15T00:22:39;26.03;;;17.50;;
31210;SDS011;17836;50.948;3.946;2022-11-15T00:25:04;25.27;;;17.98;;
31210;SDS011;17836;50.948;3.946;2022-11-15T00:27:30;24.55;;;17.27;;
31210;SDS011;17836;50.948;3.946;2022-11-15T00:29:55;23.23;;;17.60;;
31210;SDS011;17836;50.948;3.946;2022-11-15T00:32:20;23.33;;;18.07;;
31210;SDS011;17836;50.948;3.946;2022-11-15T00:34:45;25.40;;;17.37;;
31210;SDS011;17836;50.948;3.946;2022-11-15T00:37:11;24.00;;;17.53;;
31210;SDS011;17836;50.948;3.946;2022-11-15T00:39:36;24.57;;;17.20;;
31210;SDS011;17836;50.948;3.946;2022-11-15T00:42:01;22.77;;;16.77;;
31210;SDS011;17836;50.948;3.946;2022-11-15T00:44:27;24.60;;;18.15;;
31210;SDS011;17836;50.948;3.946;2022-11-15T00:46:52;25.37;;;17.00;;
31210;SDS011;17836;50.948;3.946;2022-11-15T00:49:17;20.80;;;16.27;;
31210;SDS011;17836;50.948;3.946;2022-11-15T00:51:43;28.02;;;17.50;;
31210;SDS011;17836;50.948;3.946;2022-11-15T00:54:08;25.57;;;17.40;;
31210;SDS011;17836;50.948;3.946;2022-11-15T00:56:33;22.73;;;15.97;;
31210;SDS011;17836;50.948;3.946;2022-11-15T00:58:58;19.20;;;17.10;;
31210;SDS011;17836;50.948;3.946;2022-11-15T01:01:24;22.42;;;16.20;;
31210;SDS011;17836;50.948;3.946;2022-11-15T01:03:49;22.98;;;16.52;;
31210;SDS011;17836;50.948;3.946;2022-11-15T01:06:14;26.37;;;18.33;;
31210;SDS011;17836;50.948;3.946;2022-11-15T01:08:40;21.63;;;16.43;;
31210;SDS011;17836;50.948;3.946;2022-11-15T01:11:08;22.40;;;16.48;;
31210;SDS011;17836;50.948;3.946;2022-11-15T01:13:34;22.42;;;16.63;;
31210;SDS011;17836;50.948;3.946;2022-11-15T01:16:09;20.33;;;16.20;;
31210;SDS011;17836;50.948;3.946;2022-11-15T01:18:35;22.13;;;16.00;;
31210;SDS011;17836;50.948;3.946;2022-11-15T01:21:08;21.98;;;16.02;;
31210;SDS011;17836;50.948;3.946;2022-11-15T01:23:33;27.48;;;17.80;;
31210;SDS011;17836;50.948;3.946;2022-11-15T01:25:59;20.88;;;16.75;;
31210;SDS011;17836;50.948;3.946;2022-11-15T01:28:25;23.15;;;17.38;;
31210;SDS011;17836;50.948;3.946;2022-11-15T01:30:50;21.38;;;16.45;;
31210;SDS011;17836;50.948;3.946;2022-11-15T01:33:15;28.27;;;17.30;;
31210;SDS011;17836;50.948;3.946;2022-11-15T01:35:40;23.23;;;16.87;;
31210;SDS011;17836;50.948;3.946;2022-11-15T01:38:06;20.15;;;15.23;;
31210;SDS011;17836;50.948;3.946;2022-11-15T01:40:32;21.08;;;15.55;;
31210;SDS011;17836;50.948;3.946;2022-11-15T01:42:57;17.70;;;14.23;;
31210;SDS011;17836;50.948;3.946;2022-11-15T01:45:23;22.73;;;14.68;;
31210;SDS011;17836;50.948;3.946;2022-11-15T01:47:48;17.47;;;14.33;;
31210;SDS011;17836;50.948;3.946;2022-11-15T01:50:17;21.52;;;15.85;;
31210;SDS011;17836;50.948;3.946;2022-11-15T01:52:45;24.00;;;15.82;;
31210;SDS011;17836;50.948;3.946;2022-11-15T01:55:12;23.00;;;14.80;;
31210;SDS011;17836;50.948;3.946;2022-11-15T01:57:43;17.63;;;14.73;;
31210;SDS011;17836;50.948;3.946;2022-11-15T02:00:10;18.48;;;15.10;;
31210;SDS011;17836;50.948;3.946;2022-11-15T02:02:36;21.83;;;14.85;;
31210;SDS011;17836;50.948;3.946;2022-11-15T02:05:01;20.33;;;14.40;;
31210;SDS011;17836;50.948;3.946;2022-11-15T02:07:27;19.85;;;14.75;;
31210;SDS011;17836;50.948;3.946;2022-11-15T02:09:53;17.27;;;13.93;;
31210;SDS011;17836;50.948;3.946;2022-11-15T02:12:19;17.08;;;13.43;;
31210;SDS011;17836;50.948;3.946;2022-11-15T02:14:47;21.38;;;14.27;;
31210;SDS011;17836;50.948;3.946;2022-11-15T02:38:09;14.63;;;12.32;;
31210;SDS011;17836;50.948;3.946;2022-11-15T02:40:53;22.42;;;13.20;;
31210;SDS011;17836;50.948;3.946;2022-11-15T02:43:27;17.17;;;12.10;;
31210;SDS011;17836;50.948;3.946;2022-11-15T02:46:14;16.45;;;12.00;;
31210;SDS011;17836;50.948;3.946;2022-11-15T02:51:08;17.38;;;11.98;;
31210;SDS011;17836;50.948;3.946;2022-11-15T02:53:33;20.38;;;11.82;;
31210;SDS011;17836;50.948;3.946;2022-11-15T02:55:59;17.33;;;11.30;;
31210;SDS011;17836;50.948;3.946;2022-11-15T03:05:53;15.13;;;9.93;;
31210;SDS011;17836;50.948;3.946;2022-11-15T03:11:08;12.95;;;9.50;;
31210;SDS011;17836;50.948;3.946;2022-11-15T03:18:29;17.73;;;9.63;;
31210;SDS011;17836;50.948;3.946;2022-11-15T03:20:56;12.00;;;8.50;;
31210;SDS011;17836;50.948;3.946;2022-11-15T03:23:22;12.82;;;8.73;;
31210;SDS011;17836;50.948;3.946;2022-11-15T03:25:49;15.20;;;9.07;;
31210;SDS011;17836;50.948;3.946;2022-11-15T03:28:17;10.10;;;9.00;;
31210;SDS011;17836;50.948;3.946;2022-11-15T03:30:45;13.60;;;9.02;;
31210;SDS011;17836;50.948;3.946;2022-11-15T03:33:12;17.05;;;9.95;;
31210;SDS011;17836;50.948;3.946;2022-11-15T03:35:39;14.15;;;8.95;;
31210;SDS011;17836;50.948;3.946;2022-11-15T03:38:22;12.35;;;9.48;;
31210;SDS011;17836;50.948;3.946;2022-11-15T03:40:54;12.63;;;8.80;;
31210;SDS011;17836;50.948;3.946;2022-11-15T03:48:39;10.88;;;8.13;;
31210;SDS011;17836;50.948;3.946;2022-11-15T03:51:05;14.82;;;9.82;;
31210;SDS011;17836;50.948;3.946;2022-11-15T03:53:30;12.15;;;9.20;;
31210;SDS011;17836;50.948;3.946;2022-11-15T03:55:56;13.43;;;9.00;;
31210;SDS011;17836;50.948;3.946;2022-11-15T03:58:22;10.40;;;8.40;;
31210;SDS011;17836;50.948;3.946;2022-11-15T04:00:47;15.45;;;9.65;;
31210;SDS011;17836;50.948;3.946;2022-11-15T04:03:12;13.40;;;8.50;;
31210;SDS011;17836;50.948;3.946;2022-11-15T04:05:37;15.83;;;8.43;;
31210;SDS011;17836;50.948;3.946;2022-11-15T04:08:03;12.27;;;8.80;;
31210;SDS011;17836;50.948;3.946;2022-11-15T04:10:28;11.48;;;7.70;;
31210;SDS011;17836;50.948;3.946;2022-11-15T04:12:53;11.97;;;6.90;;
31210;SDS011;17836;50.948;3.946;2022-11-15T04:15:22;17.13;;;7.75;;
31210;SDS011;17836;50.948;3.946;2022-11-15T04:17:49;15.77;;;7.30;;
31210;SDS011;17836;50.948;3.946;2022-11-15T04:20:22;10.38;;;6.68;;
31210;SDS011;17836;50.948;3.946;2022-11-15T04:23:13;9.77;;;6.82;;
31210;SDS011;17836;50.948;3.946;2022-11-15T04:25:58;9.35;;;6.57;;
31210;SDS011;17836;50.948;3.946;2022-11-15T04:28:24;8.80;;;6.50;;
31210;SDS011;17836;50.948;3.946;2022-11-15T04:30:49;12.13;;;6.82;;
31210;SDS011;17836;50.948;3.946;2022-11-15T04:33:15;9.63;;;6.50;;
31210;SDS011;17836;50.948;3.946;2022-11-15T04:35:40;10.57;;;6.43;;
31210;SDS011;17836;50.948;3.946;2022-11-15T04:38:07;10.05;;;5.88;;
31210;SDS011;17836;50.948;3.946;2022-11-15T04:40:32;9.40;;;6.20;;
31210;SDS011;17836;50.948;3.946;2022-11-15T04:42:58;8.18;;;5.90;;
31210;SDS011;17836;50.948;3.946;2022-11-15T04:45:23;10.43;;;6.43;;
31210;SDS011;17836;50.948;3.946;2022-11-15T04:47:49;15.87;;;6.13;;
31210;SDS011;17836;50.948;3.946;2022-11-15T04:50:15;15.10;;;6.63;;
31210;SDS011;17836;50.948;3.946;2022-11-15T04:52:41;7.65;;;5.75;;
31210;SDS011;17836;50.948;3.946;2022-11-15T04:55:07;14.05;;;6.70;;
31210;SDS011;17836;50.948;3.946;2022-11-15T04:57:32;14.93;;;7.13;;
31210;SDS011;17836;50.948;3.946;2022-11-15T04:59:58;10.23;;;8.00;;
31210;SDS011;17836;50.948;3.946;2022-11-15T05:02:24;14.02;;;7.70;;
31210;SDS011;17836;50.948;3.946;2022-11-15T05:05:09;9.40;;;6.68;;
31210;SDS011;17836;50.948;3.946;2022-11-15T05:07:34;10.63;;;6.23;;
31210;SDS011;17836;50.948;3.946;2022-11-15T05:09:59;11.10;;;6.13;;
31210;SDS011;17836;50.948;3.946;2022-11-15T05:12:24;8.27;;;4.90;;
31210;SDS011;17836;50.948;3.946;2022-11-15T05:14:50;7.03;;;5.90;;
31210;SDS011;17836;50.948;3.946;2022-11-15T05:17:15;7.73;;;5.83;;
31210;SDS011;17836;50.948;3.946;2022-11-15T05:19:40;8.27;;;4.50;;
31210;SDS011;17836;50.948;3.946;2022-11-15T05:22:05;11.00;;;5.20;;
31210;SDS011;17836;50.948;3.946;2022-11-15T05:24:30;10.77;;;6.23;;
31210;SDS011;17836;50.948;3.946;2022-11-15T05:26:56;10.77;;;5.83;;
31210;SDS011;17836;50.948;3.946;2022-11-15T05:29:21;7.90;;;5.27;;
31210;SDS011;17836;50.948;3.946;2022-11-15T05:31:46;7.53;;;5.17;;
31210;SDS011;17836;50.948;3.946;2022-11-15T05:34:11;9.40;;;4.60;;
31210;SDS011;17836;50.948;3.946;2022-11-15T05:36:46;7.70;;;4.50;;
31210;SDS011;17836;50.948;3.946;2022-11-15T05:39:11;8.48;;;4.18;;
31210;SDS011;17836;50.948;3.946;2022-11-15T05:41:37;6.63;;;4.43;;
31210;SDS011;17836;50.948;3.946;2022-11-15T05:44:05;9.85;;;6.00;;
31210;SDS011;17836;50.948;3.946;2022-11-15T05:46:32;9.85;;;6.20;;
31210;SDS011;17836;50.948;3.946;2022-11-15T05:48:58;11.50;;;5.07;;
31210;SDS011;17836;50.948;3.946;2022-11-15T05:51:24;8.98;;;5.00;;
31210;SDS011;17836;50.948;3.946;2022-11-15T05:53:52;6.78;;;4.55;;
31210;SDS011;17836;50.948;3.946;2022-11-15T05:56:18;6.22;;;5.10;;
31210;SDS011;17836;50.948;3.946;2022-11-15T05:58:43;6.93;;;5.10;;
31210;SDS011;17836;50.948;3.946;2022-11-15T06:01:08;8.80;;;5.40;;
31210;SDS011;17836;50.948;3.946;2022-11-15T06:03:34;5.45;;;4.78;;
31210;SDS011;17836;50.948;3.946;2022-11-15T06:05:59;7.65;;;4.90;;
31210;SDS011;17836;50.948;3.946;2022-11-15T06:08:25;9.07;;;5.60;;
31210;SDS011;17836;50.948;3.946;2022-11-15T06:10:50;9.98;;;5.05;;
31210;SDS011;17836;50.948;3.946;2022-11-15T06:13:15;8.13;;;4.20;;
31210;SDS011;17836;50.948;3.946;2022-11-15T06:15:41;4.82;;;4.03;;
31210;SDS011;17836;50.948;3.946;2022-11-15T06:18:06;9.57;;;4.20;;
31210;SDS011;17836;50.948;3.946;2022-11-15T06:20:32;7.25;;;4.35;;
31210;SDS011;17836;50.948;3.946;2022-11-15T06:23:01;6.33;;;4.20;;
31210;SDS011;17836;50.948;3.946;2022-11-15T06:25:27;4.75;;;4.22;;
31210;SDS011;17836;50.948;3.946;2022-11-15T06:27:53;7.07;;;3.90;;
31210;SDS011;17836;50.948;3.946;2022-11-15T06:30:19;7.53;;;4.28;;
31210;SDS011;17836;50.948;3.946;2022-11-15T06:32:45;4.57;;;3.88;;
31210;SDS011;17836;50.948;3.946;2022-11-15T06:35:10;8.98;;;4.40;;
31210;SDS011;17836;50.948;3.946;2022-11-15T06:37:35;8.30;;;4.80;;
31210;SDS011;17836;50.948;3.946;2022-11-15T06:40:01;5.07;;;4.37;;
31210;SDS011;17836;50.948;3.946;2022-11-15T06:42:26;5.97;;;4.10;;
31210;SDS011;17836;50.948;3.946;2022-11-15T06:44:52;7.60;;;4.57;;
31210;SDS011;17836;50.948;3.946;2022-11-15T06:47:17;7.27;;;4.53;;
31210;SDS011;17836;50.948;3.946;2022-11-15T06:49:44;9.32;;;6.05;;
31210;SDS011;17836;50.948;3.946;2022-11-15T06:52:09;6.90;;;5.03;;
31210;SDS011;17836;50.948;3.946;2022-11-15T06:54:35;5.73;;;4.90;;
31210;SDS011;17836;50.948;3.946;2022-11-15T06:57:00;6.40;;;4.57;;
31210;SDS011;17836;50.948;3.946;2022-11-15T06:59:25;11.33;;;5.07;;
31210;SDS011;17836;50.948;3.946;2022-11-15T07:01:51;6.88;;;4.70;;
31210;SDS011;17836;50.948;3.946;2022-11-15T07:04:16;4.90;;;4.20;;
31210;SDS011;17836;50.948;3.946;2022-11-15T07:06:41;6.72;;;4.75;;
31210;SDS011;17836;50.948;3.946;2022-11-15T07:09:06;11.97;;;5.87;;
31210;SDS011;17836;50.948;3.946;2022-11-15T07:11:32;8.70;;;5.70;;
31210;SDS011;17836;50.948;3.946;2022-11-15T07:13:58;9.70;;;5.72;;
31210;SDS011;17836;50.948;3.946;2022-11-15T07:16:24;7.13;;;5.78;;
31210;SDS011;17836;50.948;3.946;2022-11-15T07:18:50;6.43;;;5.78;;
31210;SDS011;17836;50.948;3.946;2022-11-15T07:21:15;8.23;;;6.10;;
31210;SDS011;17836;50.948;3.946;2022-11-15T07:23:41;9.20;;;6.23;;
31210;SDS011;17836;50.948;3.946;2022-11-15T07:26:06;12.13;;;5.93;;
31210;SDS011;17836;50.948;3.946;2022-11-15T07:28:32;9.15;;;5.72;;
31210;SDS011;17836;50.948;3.946;2022-11-15T07:30:57;6.40;;;5.47;;
31210;SDS011;17836;50.948;3.946;2022-11-15T07:33:22;10.47;;;5.97;;
31210;SDS011;17836;50.948;3.946;2022-11-15T07:35:47;8.93;;;6.47;;
31210;SDS011;17836;50.948;3.946;2022-11-15T07:38:16;7.47;;;5.97;;
31210;SDS011;17836;50.948;3.946;2022-11-15T07:40:44;9.18;;;5.43;;
31210;SDS011;17836;50.948;3.946;2022-11-15T07:43:10;7.93;;;5.35;;
31210;SDS011;17836;50.948;3.946;2022-11-15T07:45:39;14.53;;;5.93;;
31210;SDS011;17836;50.948;3.946;2022-11-15T07:48:05;12.40;;;6.10;;
31210;SDS011;17836;50.948;3.946;2022-11-15T07:50:30;12.10;;;6.75;;
31210;SDS011;17836;50.948;3.946;2022-11-15T07:52:57;10.88;;;7.13;;
31210;SDS011;17836;50.948;3.946;2022-11-15T07:55:25;12.63;;;6.97;;
31210;SDS011;17836;50.948;3.946;2022-11-15T07:57:52;9.27;;;7.20;;
31210;SDS011;17836;50.948;3.946;2022-11-15T08:00:17;8.30;;;6.87;;
31210;SDS011;17836;50.948;3.946;2022-11-15T08:02:42;8.85;;;5.90;;
31210;SDS011;17836;50.948;3.946;2022-11-15T08:05:08;7.13;;;5.72;;
31210;SDS011;17836;50.948;3.946;2022-11-15T08:07:33;8.43;;;5.93;;
31210;SDS011;17836;50.948;3.946;2022-11-15T08:09:58;5.78;;;4.93;;
31210;SDS011;17836;50.948;3.946;2022-11-15T08:12:26;11.07;;;5.00;;
31210;SDS011;17836;50.948;3.946;2022-11-15T08:14:51;7.47;;;4.60;;
31210;SDS011;17836;50.948;3.946;2022-11-15T08:17:16;8.50;;;5.50;;
31210;SDS011;17836;50.948;3.946;2022-11-15T08:19:42;6.85;;;4.10;;
31210;SDS011;17836;50.948;3.946;2022-11-15T08:22:07;6.40;;;4.13;;
31210;SDS011;17836;50.948;3.946;2022-11-15T08:24:33;5.53;;;3.63;;
31210;SDS011;17836;50.948;3.946;2022-11-15T08:27:00;6.82;;;3.10;;
31210;SDS011;17836;50.948;3.946;2022-11-15T08:29:26;9.63;;;3.50;;
31210;SDS011;17836;50.948;3.946;2022-11-15T08:31:54;6.72;;;2.97;;
31210;SDS011;17836;50.948;3.946;2022-11-15T08:34:19;4.90;;;2.22;;
31210;SDS011;17836;50.948;3.946;2022-11-15T08:36:44;8.90;;;2.47;;
31210;SDS011;17836;50.948;3.946;2022-11-15T08:39:10;15.47;;;2.93;;
31210;SDS011;17836;50.948;3.946;2022-11-15T08:41:36;5.30;;;2.72;;
31210;SDS011;17836;50.948;3.946;2022-11-15T08:44:02;5.03;;;2.53;;
31210;SDS011;17836;50.948;3.946;2022-11-15T08:46:27;4.50;;;2.63;;
31210;SDS011;17836;50.948;3.946;2022-11-15T08:48:53;6.50;;;2.73;;
31210;SDS011;17836;50.948;3.946;2022-11-15T08:51:19;5.47;;;2.05;;
31210;SDS011;17836;50.948;3.946;2022-11-15T08:53:44;7.28;;;2.47;;
31210;SDS011;17836;50.948;3.946;2022-11-15T08:56:10;4.43;;;2.13;;
31210;SDS011;17836;50.948;3.946;2022-11-15T08:58:36;3.25;;;1.33;;
31210;SDS011;17836;50.948;3.946;2022-11-15T09:01:02;4.35;;;1.60;;
31210;SDS011;17836;50.948;3.946;2022-11-15T09:03:27;4.70;;;1.35;;
31210;SDS011;17836;50.948;3.946;2022-11-15T09:05:56;10.90;;;2.37;;
31210;SDS011;17836;50.948;3.946;2022-11-15T09:08:22;3.58;;;1.80;;
31210;SDS011;17836;50.948;3.946;2022-11-15T09:10:47;4.40;;;2.03;;
31210;SDS011;17836;50.948;3.946;2022-11-15T09:13:12;2.23;;;1.63;;
31210;SDS011;17836;50.948;3.946;2022-11-15T09:15:38;4.25;;;1.35;;
31210;SDS011;17836;50.948;3.946;2022-11-15T09:18:04;4.70;;;1.67;;
31210;SDS011;17836;50.948;3.946;2022-11-15T09:20:32;4.05;;;1.52;;
31210;SDS011;17836;50.948;3.946;2022-11-15T09:23:01;6.40;;;2.47;;
31210;SDS011;17836;50.948;3.946;2022-11-15T09:25:26;4.93;;;1.73;;
31210;SDS011;17836;50.948;3.946;2022-11-15T09:27:52;5.03;;;1.70;;
31210;SDS011;17836;50.948;3.946;2022-11-15T09:30:17;6.80;;;2.40;;
31210;SDS011;17836;50.948;3.946;2022-11-15T09:32:42;7.75;;;1.70;;
31210;SDS011;17836;50.948;3.946;2022-11-15T09:35:07;3.40;;;1.57;;
31210;SDS011;17836;50.948;3.946;2022-11-15T09:37:33;5.47;;;1.43;;
31210;SDS011;17836;50.948;3.946;2022-11-15T09:39:58;5.90;;;1.77;;
31210;SDS011;17836;50.948;3.946;2022-11-15T09:48:03;5.10;;;2.00;;
31210;SDS011;17836;50.948;3.946;2022-11-15T09:50:41;7.38;;;3.13;;
31210;SDS011;17836;50.948;3.946;2022-11-15T09:53:11;8.52;;;2.28;;
31210;SDS011;17836;50.948;3.946;2022-11-15T09:55:46;6.63;;;1.90;;
31210;SDS011;17836;50.948;3.946;2022-11-15T09:58:17;6.53;;;2.40;;
31210;SDS011;17836;50.948;3.946;2022-11-15T10:00:44;9.82;;;2.38;;
31210;SDS011;17836;50.948;3.946;2022-11-15T10:06:14;12.63;;;2.25;;
31210;SDS011;17836;50.948;3.946;2022-11-15T10:11:10;7.60;;;1.73;;
31210;SDS011;17836;50.948;3.946;2022-11-15T10:13:39;5.97;;;2.00;;
31210;SDS011;17836;50.948;3.946;2022-11-15T10:18:46;6.50;;;1.80;;
31210;SDS011;17836;50.948;3.946;2022-11-15T10:21:18;3.35;;;1.63;;
31210;SDS011;17836;50.948;3.946;2022-11-15T10:23:45;6.57;;;1.67;;
31210;SDS011;17836;50.948;3.946;2022-11-15T10:26:11;6.18;;;1.38;;
31210;SDS011;17836;50.948;3.946;2022-11-15T10:28:38;7.45;;;1.98;;
31210;SDS011;17836;50.948;3.946;2022-11-15T10:31:11;7.05;;;1.83;;
31210;SDS011;17836;50.948;3.946;2022-11-15T10:33:45;4.25;;;1.50;;
31210;SDS011;17836;50.948;3.946;2022-11-15T10:38:55;5.88;;;1.90;;
31210;SDS011;17836;50.948;3.946;2022-11-15T10:46:26;2.72;;;1.02;;
31210;SDS011;17836;50.948;3.946;2022-11-15T10:48:52;10.48;;;1.33;;
31210;SDS011;17836;50.948;3.946;2022-11-15T10:51:35;7.27;;;1.10;;
31210;SDS011;17836;50.948;3.946;2022-11-15T10:54:06;2.47;;;0.73;;
31210;SDS011;17836;50.948;3.946;2022-11-15T10:56:33;5.93;;;1.45;;
31210;SDS011;17836;50.948;3.946;2022-11-15T10:58:59;4.70;;;1.23;;
31210;SDS011;17836;50.948;3.946;2022-11-15T11:01:25;4.20;;;0.90;;
31210;SDS011;17836;50.948;3.946;2022-11-15T11:03:58;6.13;;;1.13;;
31210;SDS011;17836;50.948;3.946;2022-11-15T11:06:27;7.35;;;2.00;;
31210;SDS011;17836;50.948;3.946;2022-11-15T11:08:57;5.32;;;1.10;;
31210;SDS011;17836;50.948;3.946;2022-11-15T11:11:23;3.08;;;1.25;;
31210;SDS011;17836;50.948;3.946;2022-11-15T11:13:48;8.85;;;1.65;;
31210;SDS011;17836;50.948;3.946;2022-11-15T11:21:14;10.10;;;1.48;;
31210;SDS011;17836;50.948;3.946;2022-11-15T11:23:52;5.75;;;1.25;;
31210;SDS011;17836;50.948;3.946;2022-11-15T11:38:50;4.35;;;0.85;;
31210;SDS011;17836;50.948;3.946;2022-11-15T11:49:07;7.05;;;1.40;;
31210;SDS011;17836;50.948;3.946;2022-11-15T11:54:17;5.30;;;1.25;;
31210;SDS011;17836;50.948;3.946;2022-11-15T11:56:45;4.20;;;1.35;;
31210;SDS011;17836;50.948;3.946;2022-11-15T11:59:25;2.95;;;0.90;;
31210;SDS011;17836;50.948;3.946;2022-11-15T12:01:53;3.33;;;1.05;;
31210;SDS011;17836;50.948;3.946;2022-11-15T12:04:20;7.95;;;1.08;;
31210;SDS011;17836;50.948;3.946;2022-11-15T12:06:57;3.90;;;0.90;;
31210;SDS011;17836;50.948;3.946;2022-11-15T12:09:27;3.72;;;0.90;;
31210;SDS011;17836;50.948;3.946;2022-11-15T12:14:35;4.95;;;1.55;;
31210;SDS011;17836;50.948;3.946;2022-11-15T12:17:01;6.68;;;1.05;;
31210;SDS011;17836;50.948;3.946;2022-11-15T12:19:27;4.40;;;1.10;;
31210;SDS011;17836;50.948;3.946;2022-11-15T12:24:26;3.67;;;1.13;;
31210;SDS011;17836;50.948;3.946;2022-11-15T12:26:57;2.97;;;0.90;;
31210;SDS011;17836;50.948;3.946;2022-11-15T12:29:31;3.70;;;1.23;;
31210;SDS011;17836;50.948;3.946;2022-11-15T12:31:58;5.18;;;0.75;;
31210;SDS011;17836;50.948;3.946;2022-11-15T12:36:53;6.35;;;1.30;;
31210;SDS011;17836;50.948;3.946;2022-11-15T12:39:18;3.57;;;0.70;;
31210;SDS011;17836;50.948;3.946;2022-11-15T12:41:44;8.75;;;1.55;;
31210;SDS011;17836;50.948;3.946;2022-11-15T12:44:16;6.40;;;2.20;;
31210;SDS011;17836;50.948;3.946;2022-11-15T12:46:59;5.07;;;1.33;;
31210;SDS011;17836;50.948;3.946;2022-11-15T12:56:48;3.37;;;1.00;;
31210;SDS011;17836;50.948;3.946;2022-11-15T13:04:49;4.88;;;1.08;;
31210;SDS011;17836;50.948;3.946;2022-11-15T13:09:59;3.83;;;1.67;;
31210;SDS011;17836;50.948;3.946;2022-11-15T13:14:53;5.35;;;2.03;;
31210;SDS011;17836;50.948;3.946;2022-11-15T13:19:44;5.00;;;1.70;;
31210;SDS011;17836;50.948;3.946;2022-11-15T13:22:10;6.25;;;2.15;;
31210;SDS011;17836;50.948;3.946;2022-11-15T13:24:54;8.30;;;3.47;;
31210;SDS011;17836;50.948;3.946;2022-11-15T13:27:20;5.60;;;3.22;;
31210;SDS011;17836;50.948;3.946;2022-11-15T13:29:45;6.78;;;2.63;;
31210;SDS011;17836;50.948;3.946;2022-11-15T13:32:11;10.20;;;3.13;;
31210;SDS011;17836;50.948;3.946;2022-11-15T13:34:38;7.80;;;2.85;;
31210;SDS011;17836;50.948;3.946;2022-11-15T13:37:08;10.40;;;4.53;;
31210;SDS011;17836;50.948;3.946;2022-11-15T13:39:35;9.07;;;3.17;;
31210;SDS011;17836;50.948;3.946;2022-11-15T13:42:02;6.43;;;2.00;;
31210;SDS011;17836;50.948;3.946;2022-11-15T13:44:29;2.33;;;1.90;;
31210;SDS011;17836;50.948;3.946;2022-11-15T13:47:05;5.35;;;1.38;;
31210;SDS011;17836;50.948;3.946;2022-11-15T13:49:31;1.77;;;1.00;;
31210;SDS011;17836;50.948;3.946;2022-11-15T13:51:57;9.07;;;3.50;;
31210;SDS011;17836;50.948;3.946;2022-11-15T13:54:30;6.05;;;4.05;;
31210;SDS011;17836;50.948;3.946;2022-11-15T13:57:00;3.92;;;2.17;;
31210;SDS011;17836;50.948;3.946;2022-11-15T13:59:27;3.20;;;2.28;;
31210;SDS011;17836;50.948;3.946;2022-11-15T14:01:56;6.45;;;2.38;;
31210;SDS011;17836;50.948;3.946;2022-11-15T14:04:22;5.47;;;2.75;;
31210;SDS011;17836;50.948;3.946;2022-11-15T14:06:53;5.15;;;3.10;;
31210;SDS011;17836;50.948;3.946;2022-11-15T14:11:54;4.22;;;1.92;;
31210;SDS011;17836;50.948;3.946;2022-11-15T14:14:21;6.43;;;2.05;;
31210;SDS011;17836;50.948;3.946;2022-11-15T14:16:57;3.40;;;1.73;;
31210;SDS011;17836;50.948;3.946;2022-11-15T14:24:32;4.43;;;1.45;;
31210;SDS011;17836;50.948;3.946;2022-11-15T14:27:14;8.73;;;1.60;;
31210;SDS011;17836;50.948;3.946;2022-11-15T14:29:40;5.82;;;1.95;;
31210;SDS011;17836;50.948;3.946;2022-11-15T14:32:14;4.68;;;1.95;;
31210;SDS011;17836;50.948;3.946;2022-11-15T14:34:40;5.85;;;2.40;;
31210;SDS011;17836;50.948;3.946;2022-11-15T14:37:08;4.33;;;2.10;;
31210;SDS011;17836;50.948;3.946;2022-11-15T14:39:35;3.45;;;1.65;;
31210;SDS011;17836;50.948;3.946;2022-11-15T14:42:00;4.30;;;1.92;;
31210;SDS011;17836;50.948;3.946;2022-11-15T14:44:25;5.33;;;2.33;;
31210;SDS011;17836;50.948;3.946;2022-11-15T14:46:50;4.20;;;2.00;;
31210;SDS011;17836;50.948;3.946;2022-11-15T14:49:16;4.20;;;1.85;;
31210;SDS011;17836;50.948;3.946;2022-11-15T14:51:42;3.90;;;1.77;;
31210;SDS011;17836;50.948;3.946;2022-11-15T14:54:10;1.63;;;1.38;;
31210;SDS011;17836;50.948;3.946;2022-11-15T14:56:36;3.00;;;1.80;;
31210;SDS011;17836;50.948;3.946;2022-11-15T14:59:01;4.53;;;2.55;;
31210;SDS011;17836;50.948;3.946;2022-11-15T15:01:27;3.15;;;2.03;;
31210;SDS011;17836;50.948;3.946;2022-11-15T15:03:53;3.90;;;1.98;;
31210;SDS011;17836;50.948;3.946;2022-11-15T15:06:23;4.38;;;1.67;;
31210;SDS011;17836;50.948;3.946;2022-11-15T15:08:48;2.60;;;1.67;;
31210;SDS011;17836;50.948;3.946;2022-11-15T15:11:25;3.10;;;2.10;;
31210;SDS011;17836;50.948;3.946;2022-11-15T15:13:52;5.00;;;2.17;;
31210;SDS011;17836;50.948;3.946;2022-11-15T15:16:22;4.65;;;2.83;;
31210;SDS011;17836;50.948;3.946;2022-11-15T15:18:47;4.68;;;2.45;;
31210;SDS011;17836;50.948;3.946;2022-11-15T15:21:20;6.38;;;2.67;;
31210;SDS011;17836;50.948;3.946;2022-11-15T15:23:46;4.00;;;2.42;;
31210;SDS011;17836;50.948;3.946;2022-11-15T15:26:12;4.90;;;2.37;;
31210;SDS011;17836;50.948;3.946;2022-11-15T15:28:37;7.27;;;2.50;;
31210;SDS011;17836;50.948;3.946;2022-11-15T15:31:04;5.15;;;2.80;;
31210;SDS011;17836;50.948;3.946;2022-11-15T15:33:30;6.32;;;4.90;;
31210;SDS011;17836;50.948;3.946;2022-11-15T15:35:55;5.32;;;4.38;;
31210;SDS011;17836;50.948;3.946;2022-11-15T15:38:21;3.70;;;3.40;;
31210;SDS011;17836;50.948;3.946;2022-11-15T15:40:46;6.25;;;5.15;;
31210;SDS011;17836;50.948;3.946;2022-11-15T15:43:11;4.97;;;3.88;;
31210;SDS011;17836;50.948;3.946;2022-11-15T15:45:38;4.25;;;3.58;;
31210;SDS011;17836;50.948;3.946;2022-11-15T15:48:04;5.63;;;4.20;;
31210;SDS011;17836;50.948;3.946;2022-11-15T15:50:32;5.03;;;4.25;;
31210;SDS011;17836;50.948;3.946;2022-11-15T15:52:59;5.28;;;4.38;;
31210;SDS011;17836;50.948;3.946;2022-11-15T15:55:25;5.32;;;4.00;;
31210;SDS011;17836;50.948;3.946;2022-11-15T15:57:50;4.28;;;3.42;;
31210;SDS011;17836;50.948;3.946;2022-11-15T16:00:16;3.45;;;3.03;;
31210;SDS011;17836;50.948;3.946;2022-11-15T16:02:42;5.32;;;3.80;;
31210;SDS011;17836;50.948;3.946;2022-11-15T16:05:08;3.35;;;2.90;;
31210;SDS011;17836;50.948;3.946;2022-11-15T16:07:34;3.67;;;3.38;;
31210;SDS011;17836;50.948;3.946;2022-11-15T16:09:59;3.47;;;2.93;;
31210;SDS011;17836;50.948;3.946;2022-11-15T16:12:25;4.50;;;4.10;;
31210;SDS011;17836;50.948;3.946;2022-11-15T16:14:50;3.30;;;3.00;;
31210;SDS011;17836;50.948;3.946;2022-11-15T16:17:17;6.20;;;3.53;;
31210;SDS011;17836;50.948;3.946;2022-11-15T16:19:43;3.70;;;2.83;;
31210;SDS011;17836;50.948;3.946;2022-11-15T16:22:09;4.72;;;4.22;;
31210;SDS011;17836;50.948;3.946;2022-11-15T16:24:34;5.72;;;3.78;;
31210;SDS011;17836;50.948;3.946;2022-11-15T16:27:00;3.78;;;2.92;;
31210;SDS011;17836;50.948;3.946;2022-11-15T16:29:25;4.57;;;3.20;;
31210;SDS011;17836;50.948;3.946;2022-11-15T16:31:51;3.88;;;3.30;;
31210;SDS011;17836;50.948;3.946;2022-11-15T16:34:16;4.35;;;3.20;;
31210;SDS011;17836;50.948;3.946;2022-11-15T16:36:42;3.40;;;3.10;;
31210;SDS011;17836;50.948;3.946;2022-11-15T16:39:11;6.68;;;3.63;;
31210;SDS011;17836;50.948;3.946;2022-11-15T16:41:42;5.63;;;4.72;;
31210;SDS011;17836;50.948;3.946;2022-11-15T16:44:11;6.82;;;4.45;;
31210;SDS011;17836;50.948;3.946;2022-11-15T16:46:36;6.03;;;5.13;;
31210;SDS011;17836;50.948;3.946;2022-11-15T16:49:02;6.07;;;5.47;;